Time;durP1;ratioP1;P1;durP2;ratioP2;P2;SDS_P1;SDS_P2;PMS_P1;PMS_P2;Temp;Humidity;BMP_temperature;BMP_pressure;BME280_temperature;BME280_humidity;BME280_pressure;Samples;Min_cycle;Max_cycle;Signal;HPM_P1;HPM_P2
2021/04/12 00:00:42;;;;;;;11.22;5.28;;;;;;;8.90;55.53;100012.91;2277445;77;31135;-61
2021/04/12 00:04:13;;;;;;;14.65;6.05;;;;;;;8.86;55.75;100013.98;2263267;77;28032;-62
2021/04/12 00:07:33;;;;;;;12.82;5.58;;;;;;;8.81;55.85;100011.55;2266708;77;28851;-61
2021/04/12 00:10:55;;;;;;;11.65;5.75;;;;;;;8.77;55.82;100017.11;2261936;78;27675;-62
2021/04/12 00:14:20;;;;;;;9.73;5.30;;;;;;;8.72;55.98;100013.29;2264458;77;28819;-61
2021/04/12 00:17:34;;;;;;;11.88;5.87;;;;;;;8.66;56.07;100010.44;2297526;77;31193;-61
2021/04/12 00:20:47;;;;;;;15.25;5.97;;;;;;;8.59;55.93;100006.34;2272079;77;33526;-62
2021/04/12 00:24:00;;;;;;;14.33;6.22;;;;;;;8.55;56.20;100012.75;2300419;77;28968;-62
2021/04/12 00:27:13;;;;;;;10.30;6.00;;;;;;;8.50;56.23;100008.97;2299214;77;28200;-62
2021/04/12 00:30:24;;;;;;;10.60;5.60;;;;;;;8.45;56.32;100009.59;2260386;78;28830;-61
2021/04/12 00:33:50;;;;;;;13.72;5.53;;;;;;;8.39;56.44;100008.53;2262504;77;32020;-61
2021/04/12 00:37:09;;;;;;;19.20;6.70;;;;;;;8.33;56.63;100001.67;2185378;81;33129;-61
2021/04/12 00:40:45;;;;;;;14.10;5.30;;;;;;;8.32;56.76;99998.61;2327920;76;32428;-61
2021/04/12 00:44:32;;;;;;;12.18;5.40;;;;;;;8.25;56.98;100003.84;2290256;77;27663;-62
2021/04/12 00:48:19;;;;;;;13.88;5.92;;;;;;;8.19;56.86;100004.09;2220327;80;28929;-61
2021/04/12 00:52:00;;;;;;;11.33;5.40;;;;;;;8.14;57.15;100002.98;2253747;78;33538;-62
2021/04/12 00:55:38;;;;;;;11.20;5.25;;;;;;;8.09;57.21;100002.30;2259682;78;33846;-61
2021/04/12 00:58:51;;;;;;;10.78;5.53;;;;;;;8.05;57.46;100000.70;2228581;78;28966;-61
2021/04/12 01:02:20;;;;;;;14.03;6.30;;;;;;;8.01;57.58;100003.13;2178717;81;27576;-61
2021/04/12 01:05:37;;;;;;;14.07;5.20;;;;;;;7.97;57.56;100003.70;2219593;80;28826;-61
2021/04/12 01:09:10;;;;;;;9.85;5.20;;;;;;;7.95;57.67;100002.90;2178440;81;31165;-60
2021/04/12 01:12:26;;;;;;;11.65;6.08;;;;;;;7.93;57.85;100007.46;2219542;80;34437;-60
2021/04/12 01:15:56;;;;;;;10.95;6.28;;;;;;;7.91;57.77;100009.33;2180796;81;29350;-60
2021/04/12 01:19:20;;;;;;;12.00;5.80;;;;;;;7.88;57.74;100016.97;2263656;77;27692;-61
2021/04/12 01:22:56;;;;;;;9.45;5.05;;;;;;;7.86;57.66;100021.50;2215142;80;30210;-61
2021/04/12 01:26:44;;;;;;;10.23;5.85;;;;;;;7.86;57.70;100027.31;2212980;80;32137;-61
2021/04/12 01:30:28;;;;;;;18.90;8.05;;;;;;;7.81;57.52;100038.19;2219349;80;34061;-60
2021/04/12 01:34:02;;;;;;;22.02;9.65;;;;;;;7.78;57.69;100042.80;2219030;80;28869;-61
2021/04/12 01:37:29;;;;;;;18.37;8.70;;;;;;;7.69;57.75;100054.71;2219843;80;27642;-60
2021/04/12 01:41:10;;;;;;;21.90;11.15;;;;;;;7.65;57.70;100062.42;2201463;79;28883;-61
2021/04/12 01:44:50;;;;;;;25.12;11.03;;;;;;;7.59;57.77;100063.08;2218657;80;31116;-61
2021/04/12 01:48:23;;;;;;;25.23;12.05;;;;;;;7.52;57.84;100075.38;2189793;80;33654;-61
2021/04/12 01:52:00;;;;;;;25.23;13.05;;;;;;;7.42;58.23;100076.22;2215798;79;28857;-61
2021/04/12 01:55:16;;;;;;;25.48;14.10;;;;;;;7.28;58.07;100072.31;2244360;79;27568;-61
2021/04/12 01:58:36;;;;;;;32.03;13.80;;;;;;;7.19;58.31;100092.67;2250532;79;29807;-61
2021/04/12 02:02:16;;;;;;;24.52;12.95;;;;;;;7.10;58.51;100105.00;2246207;79;32142;-60
2021/04/12 02:05:42;;;;;;;23.38;12.58;;;;;;;7.04;58.72;100088.80;2212069;80;35418;-61
2021/04/12 02:09:25;;;;;;;27.15;14.10;;;;;;;6.94;58.78;100100.73;2134482;83;28869;-60
2021/04/12 02:13:06;;;;;;;25.63;14.23;;;;;;;6.96;58.93;100091.75;2297482;77;31862;-61
2021/04/12 02:17:00;;;;;;;23.35;12.00;;;;;;;6.87;58.86;100094.75;2247922;78;27782;-59
2021/04/12 02:20:27;;;;;;;20.82;12.00;;;;;;;6.78;59.08;100091.11;2221566;80;29318;-61
2021/04/12 02:23:50;;;;;;;24.02;12.15;;;;;;;6.69;59.17;100094.98;2222324;80;31105;-60
2021/04/12 02:27:21;;;;;;;19.55;11.30;;;;;;;6.65;59.23;100101.34;2209027;80;33706;-61
2021/04/12 02:30:43;;;;;;;24.63;11.30;;;;;;;6.60;59.40;100097.52;2222147;80;28540;-61
2021/04/12 02:34:24;;;;;;;19.35;11.00;;;;;;;6.53;59.52;100106.19;2242795;79;28252;-60
2021/04/12 02:38:02;;;;;;;20.30;10.32;;;;;;;6.45;59.51;100104.28;2246155;79;29787;-61
2021/04/12 02:41:27;;;;;;;19.95;9.95;;;;;;;6.39;59.65;100111.14;2246207;79;31692;-61
2021/04/12 02:44:51;;;;;;;20.57;10.65;;;;;;;6.31;59.72;100114.07;2245982;79;33659;-60
2021/04/12 02:48:23;;;;;;;22.58;10.10;;;;;;;6.22;59.78;100109.94;2245125;79;29822;-61
2021/04/12 02:51:49;;;;;;;18.90;10.50;;;;;;;6.15;59.97;100128.35;2253500;78;27668;-60
2021/04/12 02:55:02;;;;;;;17.77;10.68;;;;;;;6.01;60.28;100122.19;2262155;78;28963;-61
2021/04/12 02:58:50;;;;;;;22.25;11.40;;;;;;;5.89;60.43;100129.19;2262396;78;31997;-61
2021/04/12 03:02:29;;;;;;;20.32;10.93;;;;;;;5.81;60.85;100135.23;2261325;78;33566;-60
2021/04/12 03:05:57;;;;;;;26.00;10.05;;;;;;;5.71;61.09;100124.03;2262563;78;30072;-60
2021/04/12 03:09:34;;;;;;;20.55;10.95;;;;;;;5.64;61.32;100126.02;2262284;78;27706;-61
2021/04/12 03:13:02;;;;;;;20.55;11.68;;;;;;;5.57;61.26;100130.66;2215673;78;28891;-60
2021/04/12 03:16:13;;;;;;;22.60;10.68;;;;;;;5.54;61.16;100138.73;2221137;80;31129;-59
2021/04/12 03:19:30;;;;;;;24.02;9.13;;;;;;;5.50;61.30;100140.20;2221633;80;33123;-60
2021/04/12 03:23:30;;;;;;;19.00;9.73;;;;;;;5.46;61.57;100136.78;2220821;80;31360;-60
2021/04/12 03:27:11;;;;;;;18.87;9.35;;;;;;;5.46;61.55;100139.44;2211073;80;27676;-61
2021/04/12 03:30:30;;;;;;;17.55;10.30;;;;;;;5.47;61.61;100138.05;2183005;80;28915;-61
2021/04/12 03:34:03;;;;;;;20.85;9.85;;;;;;;5.48;61.82;100134.92;2220824;80;31196;-60
2021/04/12 03:37:42;;;;;;;21.57;10.30;;;;;;;5.47;61.68;100137.16;2220231;80;32876;-61
2021/04/12 03:41:12;;;;;;;19.20;10.35;;;;;;;5.46;61.86;100131.00;2182955;80;28800;-61
2021/04/12 03:44:44;;;;;;;20.32;10.00;;;;;;;5.46;61.89;100132.80;2192661;80;27711;-60
2021/04/12 03:48:29;;;;;;;19.65;11.25;;;;;;;5.42;61.81;100132.00;2185186;78;30032;-60
2021/04/12 03:52:25;;;;;;;23.05;11.40;;;;;;;5.39;61.97;100137.88;2220445;80;31166;-63
2021/04/12 03:55:53;;;;;;;19.90;10.15;;;;;;;5.37;62.34;100144.58;2220878;80;33110;-61
2021/04/12 03:59:17;;;;;;;20.15;11.60;;;;;;;5.41;62.64;100143.55;2185804;80;28849;-60
2021/04/12 04:02:34;;;;;;;17.02;10.20;;;;;;;5.47;62.98;100151.34;2182345;81;27745;-61
2021/04/12 04:06:02;;;;;;;18.20;10.08;;;;;;;5.57;63.16;100157.67;2182329;80;28824;-60
2021/04/12 04:09:43;;;;;;;25.37;10.25;;;;;;;5.67;63.44;100162.25;2186272;80;31245;-61
2021/04/12 04:13:24;;;;;;;23.12;9.73;;;;;;;5.80;63.83;100173.37;2232466;78;33120;-61
2021/04/12 04:16:46;;;;;;;16.77;9.50;;;;;;;5.92;64.13;100168.53;2221667;78;29805;-61
2021/04/12 04:20:23;;;;;;;20.77;9.18;;;;;;;6.11;64.16;100169.30;2181464;80;27685;-61
2021/04/12 04:23:56;;;;;;;17.10;9.38;;;;;;;6.29;64.32;100170.45;2193560;80;28865;-62
2021/04/12 04:27:19;;;;;;;19.75;9.73;;;;;;;6.52;64.28;100179.45;2176198;81;31144;-61
2021/04/12 04:30:46;;;;;;;24.52;12.18;;;;;;;6.75;64.29;100190.61;2184983;80;33230;-61
2021/04/12 04:34:13;;;;;;;24.95;14.05;;;;;;;6.96;64.45;100190.30;2015717;87;30663;-61
2021/04/12 04:37:57;;;;;;;22.82;13.65;;;;;;;7.19;64.58;100197.02;2093593;83;27669;-61
2021/04/12 04:41:25;;;;;;;25.92;14.90;;;;;;;7.37;64.77;100191.00;2086259;85;28896;-61
2021/04/12 04:45:15;;;;;;;30.87;16.23;;;;;;;7.65;64.98;100197.92;2328595;76;31475;-62
2021/04/12 04:48:56;;;;;;;32.63;18.00;;;;;;;7.76;65.02;100210.84;2302976;77;27660;-61
2021/04/12 04:52:12;;;;;;;33.80;18.05;;;;;;;7.93;65.37;100216.84;2293974;77;28817;-60
2021/04/12 04:55:32;;;;;;;28.12;16.23;;;;;;;8.12;65.53;100230.30;2261622;77;31218;-61
2021/04/12 04:58:59;;;;;;;31.50;16.65;;;;;;;8.27;65.82;100242.17;2263587;77;33826;-60
2021/04/12 05:02:41;;;;;;;32.05;18.05;;;;;;;8.45;66.11;100251.65;2262076;77;28534;-70
2021/04/12 05:06:11;;;;;;;37.70;21.33;;;;;;;8.62;66.07;100259.85;2260742;78;27695;-58
2021/04/12 05:09:50;;;;;;;41.15;23.38;;;;;;;8.84;66.54;100267.45;2264132;77;29548;-66
2021/04/12 05:13:16;;;;;;;38.85;24.32;;;;;;;9.02;66.60;100275.12;2202251;80;31140;-75
2021/04/12 05:16:48;;;;;;;39.08;24.63;;;;;;;9.20;66.61;100284.11;2249884;79;33160;-60
2021/04/12 05:20:16;;;;;;;43.75;26.75;;;;;;;9.35;66.74;100285.25;2064313;84;28074;-61
2021/04/12 05:23:57;;;;;;;35.40;24.37;;;;;;;9.47;66.98;100284.69;2070725;84;27815;-61
2021/04/12 05:27:33;;;;;;;38.30;25.70;;;;;;;9.58;66.90;100290.44;2117937;82;28829;-61
2021/04/12 05:31:05;;;;;;;44.90;25.95;;;;;;;9.69;67.07;100292.59;2119112;82;31158;-61
2021/04/12 05:34:43;;;;;;;34.35;21.07;;;;;;;9.75;66.79;100299.50;2145895;82;33192;-61
2021/04/12 05:38:42;;;;;;;35.10;21.65;;;;;;;9.90;66.86;100299.23;2313045;76;32863;-62
2021/04/12 05:42:24;;;;;;;28.27;19.57;;;;;;;9.92;66.85;100304.05;2273080;77;27586;-61
2021/04/12 05:46:08;;;;;;;27.00;18.52;;;;;;;9.98;66.66;100302.88;2284382;77;28782;-64
2021/04/12 05:49:49;;;;;;;27.55;18.67;;;;;;;10.04;66.54;100300.78;2279086;77;31185;-63
2021/04/12 05:53:12;;;;;;;28.83;19.12;;;;;;;10.10;66.46;100298.28;2216759;80;33137;-62
2021/04/12 05:56:28;;;;;;;28.85;18.35;;;;;;;10.17;66.24;100308.25;2230588;77;28555;-61
2021/04/12 06:00:03;;;;;;;34.63;20.55;;;;;;;10.23;66.22;100308.42;2254656;78;27988;-61
2021/04/12 06:03:37;;;;;;;30.60;20.00;;;;;;;10.25;66.08;100320.78;2219805;78;28812;-61
2021/04/12 06:07:14;;;;;;;31.87;19.77;;;;;;;10.29;65.97;100318.81;2249577;78;31266;-61
2021/04/12 06:10:59;;;;;;;29.72;19.50;;;;;;;10.27;65.78;100332.29;2246259;78;33205;-60
2021/04/12 06:14:26;;;;;;;29.87;19.02;;;;;;;10.25;65.77;100342.69;2253635;78;29821;-61
2021/04/12 06:18:07;;;;;;;25.92;17.42;;;;;;;10.18;65.74;100339.41;2250681;77;27611;-61
2021/04/12 06:21:20;;;;;;;29.95;19.62;;;;;;;10.15;65.70;100348.45;2213948;80;29784;-60
2021/04/12 06:25:17;;;;;;;28.47;19.00;;;;;;;10.16;65.86;100348.86;2249957;78;31276;-62
2021/04/12 06:28:41;;;;;;;;;;;;;;;10.13;65.78;100340.97;2258942;78;33632;-62
2021/04/12 06:31:58;;;;;;;42.40;25.75;;;;;;;10.09;65.77;100342.08;2257965;78;29807;-61
2021/04/12 06:35:34;;;;;;;29.60;21.02;;;;;;;10.08;65.72;100339.45;2214455;80;27765;-61
2021/04/12 06:39:28;;;;;;;25.35;18.80;;;;;;;10.07;65.81;100359.13;2241040;78;30131;-61
2021/04/12 06:42:52;;;;;;;23.40;17.77;;;;;;;10.04;65.75;100368.18;2220055;78;32162;-61
2021/04/12 06:46:39;;;;;;;31.05;20.27;;;;;;;10.00;65.84;100374.61;2238563;78;33561;-61
2021/04/12 06:50:12;;;;;;;27.87;17.37;;;;;;;9.98;65.87;100379.16;2224361;78;29869;-61
2021/04/12 06:54:09;;;;;;;23.32;17.42;;;;;;;9.94;65.71;100374.88;2179049;81;27678;-60
2021/04/12 06:57:55;;;;;;;25.95;17.30;;;;;;;9.95;65.90;100380.18;2231108;77;31098;-62
2021/04/12 07:01:52;;;;;;;24.20;15.55;;;;;;;9.93;65.82;100391.91;2176912;80;31562;-61
2021/04/12 07:05:22;;;;;;;32.23;19.70;;;;;;;9.87;65.75;100396.58;2217876;80;34238;-61
2021/04/12 07:08:58;;;;;;;26.97;17.95;;;;;;;9.90;65.98;100396.05;2219806;77;32307;-59
2021/04/12 07:12:42;;;;;;;22.98;16.30;;;;;;;9.84;66.00;100399.87;2205989;80;27602;-61
2021/04/12 07:16:19;;;;;;;23.55;16.75;;;;;;;9.83;65.85;100407.02;2178700;81;29808;-60
2021/04/12 07:19:48;;;;;;;24.55;16.15;;;;;;;9.80;65.82;100406.30;2194969;80;31571;-60
2021/04/12 07:23:28;;;;;;;23.05;15.95;;;;;;;9.76;65.92;100417.61;2215693;80;33128;-60
2021/04/12 07:26:57;;;;;;;26.25;15.70;;;;;;;9.74;66.03;100428.84;2201869;80;27703;-60
2021/04/12 07:30:36;;;;;;;31.87;17.00;;;;;;;9.68;65.81;100439.80;2196411;80;28108;-61
2021/04/12 07:33:57;;;;;;;26.93;17.23;;;;;;;9.69;66.28;100424.16;2320624;76;31234;-60
2021/04/12 07:37:14;;;;;;;25.08;15.18;;;;;;;9.68;66.12;100432.63;2278457;77;27657;-60
2021/04/12 07:40:48;;;;;;;19.73;13.83;;;;;;;9.70;66.09;100442.80;2281117;77;29743;-61
2021/04/12 07:44:17;;;;;;;19.00;12.68;;;;;;;9.82;66.14;100447.23;2264908;77;32117;-68
2021/04/12 07:47:48;;;;;;;17.82;11.15;;;;;;;9.96;65.96;100452.84;2215957;80;33097;-61
2021/04/12 07:51:18;;;;;;;20.10;10.80;;;;;;;9.99;65.75;100451.82;2169466;81;28540;-61
2021/04/12 07:54:52;;;;;;;17.02;12.40;;;;;;;10.01;65.62;100465.52;2170342;81;27920;-61
2021/04/12 07:58:09;;;;;;;21.95;15.38;;;;;;;10.01;65.55;100467.34;2171082;81;28825;-61
2021/04/12 08:01:25;;;;;;;17.55;14.63;;;;;;;9.99;65.54;100474.57;2196315;80;32035;-62
2021/04/12 08:05:07;;;;;;;17.85;13.80;;;;;;;9.99;65.41;100479.92;2143085;81;34032;-62
2021/04/12 08:08:59;;;;;;;15.18;11.85;;;;;;;9.99;65.35;100482.59;2181009;80;28849;-62
2021/04/12 08:12:30;;;;;;;10.53;8.88;;;;;;;9.98;65.10;100488.88;2179078;80;27754;-63
2021/04/12 08:16:07;;;;;;;13.28;8.63;;;;;;;9.90;64.86;100497.25;2175758;80;28727;-62
2021/04/12 08:19:47;;;;;;;16.10;10.38;;;;;;;9.85;64.85;100503.27;2144423;81;32497;-62
2021/04/12 08:23:28;;;;;;;10.95;9.15;;;;;;;9.83;64.82;100513.19;2190579;77;34056;-63
2021/04/12 08:27:10;;;;;;;12.25;9.43;;;;;;;9.82;64.73;100520.33;2279617;77;29258;-62
2021/04/12 08:30:37;;;;;;;13.83;8.90;;;;;;;9.78;64.46;100523.21;2272840;77;27797;-61
2021/04/12 08:34:32;;;;;;;10.28;7.65;;;;;;;9.75;64.49;100530.91;2283885;77;28830;-63
2021/04/12 08:38:11;;;;;;;17.02;9.03;;;;;;;9.71;64.42;100537.32;2284343;77;31132;-62
2021/04/12 08:41:42;;;;;;;12.93;7.92;;;;;;;9.68;64.28;100544.98;2288394;77;33117;-62
2021/04/12 08:45:21;;;;;;;12.95;7.92;;;;;;;9.64;64.17;100553.21;2225662;79;28859;-62
2021/04/12 08:48:58;;;;;;;10.82;7.90;;;;;;;9.58;64.40;100553.00;2196870;80;27783;-61
2021/04/12 08:52:34;;;;;;;15.90;10.23;;;;;;;9.63;64.35;100557.70;2343134;76;32715;-61
2021/04/12 08:56:08;;;;;;;8.75;6.12;;;;;;;9.60;64.39;100555.16;2300997;77;27602;-60
2021/04/12 08:59:52;;;;;;;7.97;5.58;;;;;;;9.65;64.29;100569.66;2303142;77;30327;-61
2021/04/12 09:03:50;;;;;;;8.43;4.78;;;;;;;9.67;64.09;100568.69;2288530;77;31645;-62
2021/04/12 09:07:30;;;;;;;10.75;6.78;;;;;;;9.64;63.97;100579.51;2261799;78;35459;-63
2021/04/12 09:11:30;;;;;;;8.25;4.85;;;;;;;9.64;64.02;100583.52;2262504;77;29174;-60
2021/04/12 09:15:24;;;;;;;6.08;4.33;;;;;;;9.66;63.88;100588.34;2263483;77;27698;-60
2021/04/12 09:19:00;;;;;;;5.35;3.83;;;;;;;9.62;63.70;100593.86;2279103;77;28832;-64
2021/04/12 09:22:23;;;;;;;4.58;3.75;;;;;;;9.62;63.65;100591.19;2294283;77;32299;-63
2021/04/12 09:26:00;;;;;;;6.15;3.95;;;;;;;9.56;63.51;100597.21;2284434;77;33524;-61
2021/04/12 09:29:43;;;;;;;5.95;2.98;;;;;;;9.55;63.52;100600.82;2182313;80;29397;-62
2021/04/12 09:33:16;;;;;;;5.10;3.20;;;;;;;9.65;63.45;100601.77;2192771;81;27859;-64
2021/04/12 09:37:14;;;;;;;3.83;2.90;;;;;;;9.71;63.24;100602.38;2193750;81;28871;-60
2021/04/12 09:40:34;;;;;;;5.85;3.90;;;;;;;9.85;63.08;100612.52;2194323;79;31157;-61
2021/04/12 09:44:00;;;;;;;11.50;4.58;;;;;;;9.88;62.97;100608.84;2209389;80;33088;-60
2021/04/12 09:47:35;;;;;;;6.83;3.20;;;;;;;9.97;63.19;100619.63;2179953;80;29411;-61
2021/04/12 09:51:14;;;;;;;11.83;5.90;;;;;;;9.95;62.93;100621.05;2205681;79;27820;-63
2021/04/12 09:55:13;;;;;;;10.53;5.90;;;;;;;9.91;62.66;100624.77;2223346;79;30274;-61
2021/04/12 09:58:55;;;;;;;12.55;6.00;;;;;;;9.89;62.55;100631.98;2214925;80;31151;-61
2021/04/12 10:02:54;;;;;;;12.85;7.05;;;;;;;9.87;62.48;100627.16;2176269;81;33535;-63
2021/04/12 10:06:16;;;;;;;11.75;5.50;;;;;;;9.85;62.44;100627.69;2276118;78;28859;-59
2021/04/12 10:09:41;;;;;;;13.18;6.60;;;;;;;9.85;62.24;100641.07;2240382;79;27768;-61
2021/04/12 10:13:06;;;;;;;9.23;5.35;;;;;;;9.80;62.17;100639.07;2259695;78;28822;-60
2021/04/12 10:16:24;;;;;;;5.37;4.53;;;;;;;9.72;62.17;100644.73;2175679;81;31754;-59
2021/04/12 10:19:50;;;;;;;7.80;4.12;;;;;;;9.64;62.01;100651.73;2256666;78;33129;-60
2021/04/12 10:23:13;;;;;;;5.62;3.77;;;;;;;9.60;61.87;100647.92;2239954;79;28857;-61
2021/04/12 10:26:30;;;;;;;8.93;5.67;;;;;;;9.56;62.00;100650.70;2322523;76;31499;-60
2021/04/12 10:30:02;;;;;;;7.87;4.37;;;;;;;9.63;62.11;100654.00;2290767;75;28049;-61
2021/04/12 10:33:13;;;;;;;5.70;3.50;;;;;;;9.64;62.07;100657.53;2303732;77;29520;-64
2021/04/12 10:36:32;;;;;;;32.00;15.18;;;;;;;9.61;62.21;100667.91;2302220;77;31135;-61
2021/04/12 10:40:02;;;;;;;12.68;6.22;;;;;;;9.62;62.19;100666.08;2293379;77;34243;-62
2021/04/12 10:43:33;;;;;;;4.17;3.10;;;;;;;9.54;61.87;100672.62;2204236;80;29453;-61
2021/04/12 10:47:01;;;;;;;8.80;4.67;;;;;;;9.49;61.91;100677.27;2216871;79;27721;-61
2021/04/12 10:50:35;;;;;;;7.67;4.25;;;;;;;9.46;61.90;100682.73;2221201;79;29799;-60
2021/04/12 10:54:33;;;;;;;8.38;4.12;;;;;;;9.42;61.82;100679.80;2232898;79;31865;-60
2021/04/12 10:58:13;;;;;;;10.88;5.80;;;;;;;9.35;61.75;100681.81;2230712;79;33850;-61
2021/04/12 11:01:50;;;;;;;6.87;4.22;;;;;;;9.31;62.17;100684.22;2223081;79;30562;-60
2021/04/12 11:05:08;;;;;;;21.37;8.60;;;;;;;9.32;62.28;100693.98;2193451;81;27722;-60
2021/04/12 11:08:33;;;;;;;13.28;6.60;;;;;;;9.30;62.25;100690.94;2192663;81;28924;-59
2021/04/12 11:12:19;;;;;;;16.45;10.80;;;;;;;9.26;62.46;100701.78;2212789;79;31229;-59
2021/04/12 11:15:35;;;;;;;;;;;;;;;9.21;62.57;100698.84;2234280;79;34450;-59
2021/04/12 11:19:16;;;;;;;8.30;5.37;;;;;;;9.16;62.68;100713.73;2232227;79;28925;-60
2021/04/12 11:22:32;;;;;;;11.83;7.10;;;;;;;9.11;62.84;100717.02;2232992;79;27650;-60
2021/04/12 11:26:21;;;;;;;19.20;12.10;;;;;;;9.07;62.98;100720.28;2232929;79;29276;-60
2021/04/12 11:29:31;;;;;;;20.92;12.47;;;;;;;9.03;62.96;100724.47;2203832;79;32289;-58
2021/04/12 11:33:00;;;;;;;17.45;10.75;;;;;;;8.97;63.05;100731.77;2192945;81;34152;-59
2021/04/12 11:36:38;;;;;;;7.20;4.72;;;;;;;8.89;62.93;100736.53;2192389;81;30234;-59
2021/04/12 11:39:50;;;;;;;6.08;4.10;;;;;;;8.80;63.13;100748.86;2192928;81;27597;-60
2021/04/12 11:42:58;;;;;;;6.22;5.25;;;;;;;8.74;63.18;100752.63;2189978;81;29768;-58
2021/04/12 11:46:17;;;;;;;5.62;4.25;;;;;;;8.62;62.97;100753.05;2192259;79;31129;-60
2021/04/12 11:49:49;;;;;;;8.73;5.83;;;;;;;8.52;63.00;100757.83;2191201;79;34516;-59
2021/04/12 11:53:28;;;;;;;5.77;4.80;;;;;;;8.44;63.23;100751.38;2227467;78;34771;-60
2021/04/12 11:56:51;;;;;;;12.43;5.75;;;;;;;8.51;63.08;100750.75;2228708;79;27753;-59
2021/04/12 12:00:20;;;;;;;10.28;5.92;;;;;;;8.54;62.86;100761.33;2177862;79;28821;-59
2021/04/12 12:04:02;;;;;;;8.05;5.80;;;;;;;8.53;62.96;100766.25;2189487;81;31180;-61
2021/04/12 12:07:18;;;;;;;10.58;6.30;;;;;;;8.52;62.84;100769.84;2193538;79;33130;-60
2021/04/12 12:10:39;;;;;;;8.63;5.87;;;;;;;8.47;62.70;100770.42;2189477;81;28591;-59
2021/04/12 12:14:03;;;;;;;6.97;5.83;;;;;;;8.38;62.59;100779.61;2188669;81;28170;-60
2021/04/12 12:17:20;;;;;;;6.87;5.77;;;;;;;8.29;62.59;100780.78;2332691;76;29535;-61
2021/04/12 12:20:28;;;;;;;9.60;7.20;;;;;;;8.18;62.76;100797.16;2293212;77;27635;-61
2021/04/12 12:24:04;;;;;;;10.40;7.40;;;;;;;8.15;62.58;100791.03;2284794;77;28878;-61
2021/04/12 12:27:35;;;;;;;14.18;8.83;;;;;;;8.13;62.58;100789.75;2290755;77;31910;-60
2021/04/12 12:35:03;;;;;;;11.97;7.80;;;;;;;8.17;62.27;100787.86;2342950;74;32381;-60
2021/04/12 12:38:29;;;;;;;15.53;8.18;;;;;;;8.13;62.19;100795.09;2302784;76;27592;-60
2021/04/12 12:41:36;;;;;;;9.35;7.70;;;;;;;8.11;62.03;100800.94;2277101;77;30236;-61
2021/04/12 12:44:39;;;;;;;9.00;6.00;;;;;;;8.08;61.60;100809.50;2305100;77;31143;-60
2021/04/12 12:47:51;;;;;;;12.30;9.48;;;;;;;8.00;61.41;100807.08;2306540;77;33171;-60
2021/04/12 12:51:11;;;;;;;9.98;7.10;;;;;;;7.95;61.37;100812.53;2306545;77;28502;-60
2021/04/12 12:54:40;;;;;;;7.70;6.20;;;;;;;7.93;61.12;100819.73;2296787;77;27706;-60
2021/04/12 12:57:44;;;;;;;8.93;6.60;;;;;;;7.86;60.96;100808.34;2264932;78;28828;-61
2021/04/12 13:00:51;;;;;;;8.40;7.05;;;;;;;7.88;61.26;100812.31;2287242;76;32113;-60
2021/04/12 13:03:56;;;;;;;11.38;6.70;;;;;;;7.89;61.24;100812.73;2239521;76;33042;-60
2021/04/12 13:07:12;;;;;;;10.58;8.20;;;;;;;7.86;61.36;100820.34;2175099;81;28901;-61
2021/04/12 13:10:20;;;;;;;14.15;8.65;;;;;;;7.84;61.46;100815.99;2202883;80;27689;-59
2021/04/12 13:13:35;;;;;;;9.48;7.10;;;;;;;7.80;61.49;100831.66;2188166;81;28898;-61
2021/04/12 13:16:38;;;;;;;12.23;8.23;;;;;;;7.72;61.47;100826.55;2190093;81;32045;-61
2021/04/12 13:19:48;;;;;;;15.45;10.28;;;;;;;7.60;61.68;100831.34;2189748;81;33171;-62
2021/04/12 13:23:03;;;;;;;9.40;7.72;;;;;;;7.53;62.05;100833.75;2196139;80;28914;-61
2021/04/12 13:26:34;;;;;;;14.00;9.38;;;;;;;7.42;62.38;100841.19;2218433;80;27710;-60
2021/04/12 13:29:50;;;;;;;14.23;9.35;;;;;;;7.27;62.95;100851.35;2219194;80;28443;-61
2021/04/12 13:33:06;;;;;;;13.95;10.78;;;;;;;7.26;63.42;100864.73;2257047;78;31151;-60
2021/04/12 13:36:17;;;;;;;14.55;10.45;;;;;;;7.24;63.44;100868.75;2259099;78;33986;-60
2021/04/12 13:39:41;;;;;;;16.07;11.03;;;;;;;7.28;63.80;100877.09;2217754;80;29047;-60
2021/04/12 13:42:55;;;;;;;17.00;11.95;;;;;;;7.28;63.74;100885.08;2242956;77;27769;-61
2021/04/12 13:46:12;;;;;;;16.85;11.00;;;;;;;7.32;63.77;100890.34;2259397;77;28888;-60
2021/04/12 13:49:19;;;;;;;13.93;10.10;;;;;;;7.34;63.73;100899.17;2262187;78;30704;-60
2021/04/12 13:52:28;;;;;;;11.83;8.33;;;;;;;7.33;63.69;100908.08;2245476;78;33056;-62
2021/04/12 13:55:45;;;;;;;14.33;8.70;;;;;;;7.24;63.55;100914.05;2268871;77;29345;-60
2021/04/12 13:59:08;;;;;;;11.35;7.40;;;;;;;7.18;63.67;100910.67;2253756;78;27651;-61
2021/04/12 14:02:25;;;;;;;9.88;7.40;;;;;;;7.09;63.63;100915.78;2260612;78;28898;-61
2021/04/12 14:05:32;;;;;;;8.48;7.33;;;;;;;7.01;63.68;100911.12;2206597;80;32100;-61
2021/04/12 14:08:46;;;;;;;8.15;6.83;;;;;;;6.95;63.77;100910.82;2224466;79;33116;-60
2021/04/12 14:11:56;;;;;;;9.63;7.67;;;;;;;6.88;63.85;100915.86;2242075;79;29732;-59
2021/04/12 14:15:15;;;;;;;8.63;6.47;;;;;;;6.81;63.83;100917.33;2238043;79;27685;-61
2021/04/12 14:18:28;;;;;;;12.37;7.37;;;;;;;6.77;64.07;100917.45;2173709;80;30065;-60
2021/04/12 14:21:44;;;;;;;10.98;8.25;;;;;;;6.69;64.12;100911.87;2191178;81;31039;-61
2021/04/12 14:24:53;;;;;;;27.82;15.50;;;;;;;6.62;64.23;100922.23;2225717;79;33114;-61
2021/04/12 14:28:18;;;;;;;19.32;12.95;;;;;;;6.57;64.42;100928.58;2234418;79;28930;-61
2021/04/12 14:31:37;;;;;;;10.30;7.37;;;;;;;6.49;64.59;100926.95;2231042;78;27683;-60
2021/04/12 14:34:46;;;;;;;10.95;7.10;;;;;;;6.42;64.78;100928.45;2216533;79;28659;-61
2021/04/12 14:37:48;;;;;;;9.70;6.60;;;;;;;6.33;65.00;100933.08;2222411;79;32128;-61
2021/04/12 14:41:04;;;;;;;9.75;7.67;;;;;;;6.25;65.00;100935.48;2229714;78;33121;-61
2021/04/12 14:44:14;;;;;;;10.32;7.03;;;;;;;6.16;65.15;100937.42;2231501;79;28926;-61
2021/04/12 14:47:22;;;;;;;8.08;6.37;;;;;;;6.12;65.36;100937.09;2230545;79;27758;-59
2021/04/12 14:50:26;;;;;;;9.13;6.67;;;;;;;6.13;65.63;100950.78;2233619;78;28816;-60
2021/04/12 14:53:42;;;;;;;11.97;9.60;;;;;;;6.15;65.66;100943.64;2234378;79;31126;-60
2021/04/12 14:56:49;;;;;;;9.10;6.90;;;;;;;6.22;65.86;100941.73;2226193;78;33127;-60
2021/04/12 14:59:57;;;;;;;8.28;5.30;;;;;;;6.26;65.86;100947.89;2219359;79;28873;-60
2021/04/12 15:03:21;;;;;;;8.10;5.97;;;;;;;6.31;65.83;100938.89;2326851;76;30353;-61
2021/04/12 15:06:44;;;;;;;8.63;6.13;;;;;;;6.29;65.90;100947.83;2343224;76;31309;-61
2021/04/12 15:10:02;;;;;;;9.45;6.65;;;;;;;6.19;65.80;100953.32;2303795;77;27581;-60
2021/04/12 15:13:12;;;;;;;7.78;6.10;;;;;;;6.18;65.92;100959.55;2295049;76;28870;-60
2021/04/12 15:16:19;;;;;;;6.47;5.25;;;;;;;6.16;65.94;100961.83;2300376;77;31125;-61
2021/04/12 15:19:38;;;;;;;5.78;4.25;;;;;;;6.12;65.98;100965.45;2298855;77;33124;-61
2021/04/12 15:22:48;;;;;;;14.00;7.65;;;;;;;6.07;65.85;100973.06;2297604;77;28545;-60
2021/04/12 15:26:08;;;;;;;11.57;8.10;;;;;;;6.00;65.75;100982.53;2208198;80;27800;-61
2021/04/12 15:29:33;;;;;;;11.48;7.25;;;;;;;5.92;65.83;100991.52;2204540;80;29347;-60
2021/04/12 15:32:50;;;;;;;11.08;8.25;;;;;;;5.88;66.09;100992.91;2175021;81;32128;-60
2021/04/12 15:35:59;;;;;;;8.95;6.70;;;;;;;5.87;66.24;100994.70;2179004;81;33124;-61
2021/04/12 15:39:31;;;;;;;12.53;7.95;;;;;;;5.83;66.23;100996.13;2179240;81;28845;-59
2021/04/12 15:42:50;;;;;;;7.70;5.83;;;;;;;5.80;66.45;101007.67;2188164;78;28531;-60
2021/04/12 15:46:11;;;;;;;11.30;7.22;;;;;;;5.72;66.32;100996.32;2199291;77;28792;-61
2021/04/12 15:49:30;;;;;;;8.43;5.75;;;;;;;5.68;66.40;100989.30;2215229;77;31204;-60
2021/04/12 15:52:43;;;;;;;10.95;6.20;;;;;;;5.63;66.52;100989.39;2201166;77;34279;-79
2021/04/12 15:56:03;;;;;;;9.23;6.05;;;;;;;5.60;66.69;100995.65;2210248;79;28840;-73
2021/04/12 15:59:33;;;;;;;9.83;6.20;;;;;;;5.58;66.56;101001.88;2206811;79;27696;-72
2021/04/12 16:02:50;;;;;;;9.70;6.15;;;;;;;5.58;66.91;100993.91;2212928;79;28838;-60
2021/04/12 16:06:00;;;;;;;13.08;8.13;;;;;;;5.57;66.97;100994.80;2204333;79;31940;-60
2021/04/12 16:09:10;;;;;;;14.00;8.05;;;;;;;5.56;67.18;100999.69;2194345;79;34439;-60